Weather at Cloverdale Farm Airport

Public forecast

Using degrees Fahrenheit for public forecast. Weather courtesy of forecast.io.

Closest aviation weather report (METAR) to Cloverdale Farm Airport

Closest report is Syracuse Hancock International Airport, 19.1 nm (35.3 km) WNW. Retrieved 2020/11/28 07:40 UTC (0 seconds ago):

KSYR 280740Z 24005KT 10SM -DZ BKN029 OVC038 06/04 A2995 RMK AO2 P0000 T00610039

Closest aviation forecast (TAF) to Cloverdale Farm Airport

Closest forecast is Syracuse Hancock International Airport, 19.1 nm (35.3 km) WNW. Retrieved 2020/11/28 06:42 UTC (44 minutes ago):

TAF KSYR 280539Z 2806/2906 25005KT P6SM BKN030 FM281400 27010G17KT P6SM BKN025 TEMPO 2814/2816 -SHRA OVC018 FM281900 28012KT P6SM BKN040 FM282300 24006KT P6SM SCT050